Lake Panamoka, New York
Current Conditions -  °F | °C
As of 10:56 AM on Sunday 23 Nov 2014 (Local Time) from KHWV Reporting Station
Few Clouds Few Clouds  
Wind Chill: 11°   Ceiling: Unl
Heat Index: 11°   Visibility: 10mi
Dew Point: -2°   Wind: 12mph
Humidity: 41%   Direction: 220°SW
Pressure: 30.2"   Gusts: NA
Location:  40.8942°N, 72.8763°W
Report Text: KHWV 231556Z AUTO 22010KT 10SM FEW090 11/M02 A3020 RMK AO2 SLP225 T01111017 TSNO
Loading
Personal Weather Stations






























Interactive Weather Map New forecast layout! Learn more

10-Day Weather Forecast

Advertisements
Track Severe Weather on mobile